sensor_id;sensor_type;location;lat;lon;timestamp;P1;durP1;ratioP1;P2;durP2;ratioP2
3439;SDS011;1733;42.286;22.690;2023-02-28T07:02:49;16.30;;;10.20;;
3439;SDS011;1733;42.286;22.690;2023-02-28T07:05:16;12.43;;;8.07;;
3439;SDS011;1733;42.286;22.690;2023-02-28T07:07:43;16.23;;;10.77;;
3439;SDS011;1733;42.286;22.690;2023-02-28T07:10:12;21.80;;;12.47;;
3439;SDS011;1733;42.286;22.690;2023-02-28T07:23:13;23.40;;;11.97;;
3439;SDS011;1733;42.286;22.690;2023-02-28T07:25:40;21.73;;;13.30;;
3439;SDS011;1733;42.286;22.690;2023-02-28T07:28:06;15.27;;;12.07;;
3439;SDS011;1733;42.286;22.690;2023-02-28T07:30:33;20.10;;;11.97;;
3439;SDS011;1733;42.286;22.690;2023-02-28T07:33:00;18.80;;;12.07;;
3439;SDS011;1733;42.286;22.690;2023-02-28T07:35:27;20.00;;;13.27;;
3439;SDS011;1733;42.286;22.690;2023-02-28T07:37:54;23.47;;;14.53;;
3439;SDS011;1733;42.286;22.690;2023-02-28T07:40:22;23.73;;;12.10;;
3439;SDS011;1733;42.286;22.690;2023-02-28T07:42:49;29.43;;;18.60;;
3439;SDS011;1733;42.286;22.690;2023-02-28T07:45:16;30.27;;;15.80;;
3439;SDS011;1733;42.286;22.690;2023-02-28T07:47:44;28.47;;;16.80;;
3439;SDS011;1733;42.286;22.690;2023-02-28T07:50:12;39.67;;;19.37;;
3439;SDS011;1733;42.286;22.690;2023-02-28T07:52:41;28.37;;;20.63;;
3439;SDS011;1733;42.286;22.690;2023-02-28T07:55:08;25.57;;;14.60;;
3439;SDS011;1733;42.286;22.690;2023-02-28T07:57:36;23.97;;;16.23;;
3439;SDS011;1733;42.286;22.690;2023-02-28T08:00:04;35.70;;;19.30;;
3439;SDS011;1733;42.286;22.690;2023-02-28T08:02:34;51.40;;;21.70;;
3439;SDS011;1733;42.286;22.690;2023-02-28T08:05:01;39.83;;;17.63;;
3439;SDS011;1733;42.286;22.690;2023-02-28T08:07:29;32.90;;;20.13;;
3439;SDS011;1733;42.286;22.690;2023-02-28T08:09:55;35.90;;;17.40;;
3439;SDS011;1733;42.286;22.690;2023-02-28T08:12:22;31.87;;;18.87;;
3439;SDS011;1733;42.286;22.690;2023-02-28T08:14:50;29.10;;;17.53;;
3439;SDS011;1733;42.286;22.690;2023-02-28T08:17:17;27.87;;;13.67;;
3439;SDS011;1733;42.286;22.690;2023-02-28T08:19:45;29.13;;;18.27;;
3439;SDS011;1733;42.286;22.690;2023-02-28T08:22:11;21.43;;;15.80;;
3439;SDS011;1733;42.286;22.690;2023-02-28T08:24:39;32.87;;;22.07;;
3439;SDS011;1733;42.286;22.690;2023-02-28T08:27:07;28.63;;;17.53;;
3439;SDS011;1733;42.286;22.690;2023-02-28T08:29:36;33.57;;;17.50;;
3439;SDS011;1733;42.286;22.690;2023-02-28T08:32:05;27.93;;;16.90;;
3439;SDS011;1733;42.286;22.690;2023-02-28T08:34:32;21.33;;;11.47;;
3439;SDS011;1733;42.286;22.690;2023-02-28T08:36:58;34.93;;;17.77;;
3439;SDS011;1733;42.286;22.690;2023-02-28T08:39:26;29.43;;;13.80;;
3439;SDS011;1733;42.286;22.690;2023-02-28T08:41:52;30.03;;;15.00;;
3439;SDS011;1733;42.286;22.690;2023-02-28T08:44:19;21.97;;;14.00;;
3439;SDS011;1733;42.286;22.690;2023-02-28T08:46:46;31.23;;;15.10;;
3439;SDS011;1733;42.286;22.690;2023-02-28T08:49:14;18.83;;;11.37;;
3439;SDS011;1733;42.286;22.690;2023-02-28T08:51:41;23.10;;;12.47;;
3439;SDS011;1733;42.286;22.690;2023-02-28T08:54:08;20.40;;;11.87;;
3439;SDS011;1733;42.286;22.690;2023-02-28T08:56:37;23.33;;;12.67;;
3439;SDS011;1733;42.286;22.690;2023-02-28T08:59:05;19.03;;;11.73;;
3439;SDS011;1733;42.286;22.690;2023-02-28T09:01:32;17.37;;;9.03;;
3439;SDS011;1733;42.286;22.690;2023-02-28T09:03:58;16.40;;;10.23;;
3439;SDS011;1733;42.286;22.690;2023-02-28T09:06:28;19.20;;;12.20;;
3439;SDS011;1733;42.286;22.690;2023-02-28T09:08:56;15.53;;;7.67;;
3439;SDS011;1733;42.286;22.690;2023-02-28T09:11:24;19.13;;;9.87;;
3439;SDS011;1733;42.286;22.690;2023-02-28T09:13:51;9.67;;;6.50;;
3439;SDS011;1733;42.286;22.690;2023-02-28T09:16:18;12.60;;;8.30;;
3439;SDS011;1733;42.286;22.690;2023-02-28T09:18:45;24.30;;;9.10;;
3439;SDS011;1733;42.286;22.690;2023-02-28T09:21:13;12.47;;;7.27;;
3439;SDS011;1733;42.286;22.690;2023-02-28T09:23:43;11.10;;;8.60;;
3439;SDS011;1733;42.286;22.690;2023-02-28T09:26:13;16.13;;;8.07;;
3439;SDS011;1733;42.286;22.690;2023-02-28T09:28:40;17.17;;;8.43;;
3439;SDS011;1733;42.286;22.690;2023-02-28T09:31:10;15.93;;;9.40;;
3439;SDS011;1733;42.286;22.690;2023-02-28T09:33:39;6.73;;;6.00;;
3439;SDS011;1733;42.286;22.690;2023-02-28T09:36:06;15.10;;;9.50;;
3439;SDS011;1733;42.286;22.690;2023-02-28T09:38:34;12.73;;;6.00;;
3439;SDS011;1733;42.286;22.690;2023-02-28T09:41:03;10.50;;;7.17;;
3439;SDS011;1733;42.286;22.690;2023-02-28T09:43:37;39.87;;;9.13;;
3439;SDS011;1733;42.286;22.690;2023-02-28T09:46:08;15.93;;;7.40;;
3439;SDS011;1733;42.286;22.690;2023-02-28T09:48:45;26.60;;;6.00;;
3439;SDS011;1733;42.286;22.690;2023-02-28T09:51:16;9.23;;;5.77;;
3439;SDS011;1733;42.286;22.690;2023-02-28T09:53:56;8.97;;;5.77;;
3439;SDS011;1733;42.286;22.690;2023-02-28T09:56:26;6.67;;;4.90;;
3439;SDS011;1733;42.286;22.690;2023-02-28T09:58:58;19.77;;;6.67;;
3439;SDS011;1733;42.286;22.690;2023-02-28T10:01:31;7.63;;;4.63;;
3439;SDS011;1733;42.286;22.690;2023-02-28T10:04:03;14.73;;;8.07;;
3439;SDS011;1733;42.286;22.690;2023-02-28T10:06:39;19.70;;;8.37;;
3439;SDS011;1733;42.286;22.690;2023-02-28T10:09:13;20.53;;;8.57;;
3439;SDS011;1733;42.286;22.690;2023-02-28T10:11:47;13.40;;;6.50;;
3439;SDS011;1733;42.286;22.690;2023-02-28T10:14:17;12.53;;;5.73;;
3439;SDS011;1733;42.286;22.690;2023-02-28T10:16:46;13.83;;;5.60;;
3439;SDS011;1733;42.286;22.690;2023-02-28T10:19:20;14.67;;;7.90;;
3439;SDS011;1733;42.286;22.690;2023-02-28T10:21:52;7.80;;;5.90;;
3439;SDS011;1733;42.286;22.690;2023-02-28T10:24:26;19.03;;;6.20;;
3439;SDS011;1733;42.286;22.690;2023-02-28T10:26:58;10.53;;;5.87;;
3439;SDS011;1733;42.286;22.690;2023-02-28T10:29:28;14.33;;;5.40;;
3439;SDS011;1733;42.286;22.690;2023-02-28T10:31:59;11.10;;;6.90;;
3439;SDS011;1733;42.286;22.690;2023-02-28T10:34:28;16.23;;;7.90;;
3439;SDS011;1733;42.286;22.690;2023-02-28T10:36:55;10.13;;;6.53;;
3439;SDS011;1733;42.286;22.690;2023-02-28T10:39:36;10.43;;;5.07;;
3439;SDS011;1733;42.286;22.690;2023-02-28T10:42:17;7.43;;;4.80;;
3439;SDS011;1733;42.286;22.690;2023-02-28T10:44:47;39.53;;;6.53;;
3439;SDS011;1733;42.286;22.690;2023-02-28T10:47:14;16.30;;;7.60;;
3439;SDS011;1733;42.286;22.690;2023-02-28T10:49:46;15.10;;;6.90;;
3439;SDS011;1733;42.286;22.690;2023-02-28T10:52:16;15.03;;;5.30;;
3439;SDS011;1733;42.286;22.690;2023-02-28T10:55:13;7.93;;;5.63;;
3439;SDS011;1733;42.286;22.690;2023-02-28T10:57:43;16.13;;;6.57;;
3439;SDS011;1733;42.286;22.690;2023-02-28T11:00:13;33.73;;;14.00;;
3439;SDS011;1733;42.286;22.690;2023-02-28T11:02:42;14.30;;;7.50;;
3439;SDS011;1733;42.286;22.690;2023-02-28T11:05:23;11.10;;;8.40;;
3439;SDS011;1733;42.286;22.690;2023-02-28T11:07:54;22.37;;;9.50;;
3439;SDS011;1733;42.286;22.690;2023-02-28T11:10:24;17.37;;;8.70;;
3439;SDS011;1733;42.286;22.690;2023-02-28T11:12:56;32.67;;;7.10;;
3439;SDS011;1733;42.286;22.690;2023-02-28T11:15:25;9.00;;;4.53;;
3439;SDS011;1733;42.286;22.690;2023-02-28T11:17:54;17.13;;;6.90;;
3439;SDS011;1733;42.286;22.690;2023-02-28T11:20:24;11.63;;;6.43;;
3439;SDS011;1733;42.286;22.690;2023-02-28T11:22:54;14.33;;;7.57;;
3439;SDS011;1733;42.286;22.690;2023-02-28T11:25:22;17.07;;;7.03;;
3439;SDS011;1733;42.286;22.690;2023-02-28T11:27:53;12.43;;;5.40;;
3439;SDS011;1733;42.286;22.690;2023-02-28T11:30:27;14.47;;;7.80;;
3439;SDS011;1733;42.286;22.690;2023-02-28T11:32:56;22.10;;;6.90;;
3439;SDS011;1733;42.286;22.690;2023-02-28T11:35:23;12.10;;;6.87;;
3439;SDS011;1733;42.286;22.690;2023-02-28T11:37:52;13.70;;;5.80;;
3439;SDS011;1733;42.286;22.690;2023-02-28T11:40:21;31.60;;;11.47;;
3439;SDS011;1733;42.286;22.690;2023-02-28T11:42:57;12.60;;;7.27;;
3439;SDS011;1733;42.286;22.690;2023-02-28T11:45:41;13.40;;;9.27;;
3439;SDS011;1733;42.286;22.690;2023-02-28T11:48:18;17.07;;;8.83;;
3439;SDS011;1733;42.286;22.690;2023-02-28T11:51:00;12.17;;;9.60;;
3439;SDS011;1733;42.286;22.690;2023-02-28T11:53:40;19.53;;;8.30;;
3439;SDS011;1733;42.286;22.690;2023-02-28T11:56:17;13.00;;;6.73;;
3439;SDS011;1733;42.286;22.690;2023-02-28T11:58:54;11.80;;;7.30;;
3439;SDS011;1733;42.286;22.690;2023-02-28T12:01:31;13.67;;;8.63;;
3439;SDS011;1733;42.286;22.690;2023-02-28T12:04:12;13.63;;;6.93;;
3439;SDS011;1733;42.286;22.690;2023-02-28T12:06:52;14.40;;;6.70;;
3439;SDS011;1733;42.286;22.690;2023-02-28T12:09:33;9.07;;;5.47;;
3439;SDS011;1733;42.286;22.690;2023-02-28T12:12:11;15.33;;;6.73;;
3439;SDS011;1733;42.286;22.690;2023-02-28T12:14:50;17.50;;;5.43;;
3439;SDS011;1733;42.286;22.690;2023-02-28T12:17:30;19.50;;;6.57;;
3439;SDS011;1733;42.286;22.690;2023-02-28T12:20:10;10.03;;;7.03;;
3439;SDS011;1733;42.286;22.690;2023-02-28T12:22:46;22.50;;;9.23;;
3439;SDS011;1733;42.286;22.690;2023-02-28T12:25:24;11.53;;;7.57;;
3439;SDS011;1733;42.286;22.690;2023-02-28T12:28:06;16.93;;;8.53;;
3439;SDS011;1733;42.286;22.690;2023-02-28T12:30:38;17.77;;;9.07;;
3439;SDS011;1733;42.286;22.690;2023-02-28T12:33:15;18.30;;;11.33;;
3439;SDS011;1733;42.286;22.690;2023-02-28T12:35:47;24.87;;;10.27;;
3439;SDS011;1733;42.286;22.690;2023-02-28T12:38:18;71.87;;;25.23;;
3439;SDS011;1733;42.286;22.690;2023-02-28T12:40:49;16.87;;;8.17;;
3439;SDS011;1733;42.286;22.690;2023-02-28T12:43:20;46.33;;;21.53;;
3439;SDS011;1733;42.286;22.690;2023-02-28T12:45:52;25.50;;;11.37;;
3439;SDS011;1733;42.286;22.690;2023-02-28T12:48:24;14.10;;;6.90;;
3439;SDS011;1733;42.286;22.690;2023-02-28T12:50:55;14.53;;;5.27;;
3439;SDS011;1733;42.286;22.690;2023-02-28T12:53:25;12.33;;;5.90;;
3439;SDS011;1733;42.286;22.690;2023-02-28T12:56:03;11.30;;;6.67;;
3439;SDS011;1733;42.286;22.690;2023-02-28T12:58:37;8.80;;;6.90;;
3439;SDS011;1733;42.286;22.690;2023-02-28T13:01:14;13.37;;;7.93;;
3439;SDS011;1733;42.286;22.690;2023-02-28T13:04:17;7.30;;;5.27;;
3439;SDS011;1733;42.286;22.690;2023-02-28T13:07:08;15.17;;;6.20;;
3439;SDS011;1733;42.286;22.690;2023-02-28T13:09:51;14.97;;;5.90;;
3439;SDS011;1733;42.286;22.690;2023-02-28T13:12:19;51.83;;;28.03;;
3439;SDS011;1733;42.286;22.690;2023-02-28T13:14:48;11.87;;;6.20;;
3439;SDS011;1733;42.286;22.690;2023-02-28T13:17:17;16.93;;;7.63;;
3439;SDS011;1733;42.286;22.690;2023-02-28T13:19:55;17.03;;;6.80;;
3439;SDS011;1733;42.286;22.690;2023-02-28T13:31:31;44.57;;;8.30;;
3439;SDS011;1733;42.286;22.690;2023-02-28T13:48:19;10.80;;;5.63;;
3439;SDS011;1733;42.286;22.690;2023-02-28T13:50:52;22.77;;;10.80;;
